Time;durP1;ratioP1;P1;durP2;ratioP2;P2;SDS_P1;SDS_P2;PMS_P1;PMS_P2;Temp;Humidity;BMP_temperature;BMP_pressure;BME280_temperature;BME280_humidity;BME280_pressure;Samples;Min_cycle;Max_cycle;Signal;HPM_P1;HPM_P2
2021/05/04 00:01:13;;;;;;;10.40;3.90;;;;;;;;;;4989259;28;20046;-56
2021/05/04 00:03:39;;;;;;;9.80;3.53;;;;;;;;;;5006301;28;20124;-56
2021/05/04 00:06:06;;;;;;;8.02;3.88;;;;;;;;;;4988964;28;20046;-58
2021/05/04 00:08:32;;;;;;;15.48;4.00;;;;;;;;;;4988610;28;20391;-57
2021/05/04 00:10:58;;;;;;;12.45;4.68;;;;;;;;;;4983448;28;20776;-58
2021/05/04 00:13:24;;;;;;;11.40;3.92;;;;;;;;;;4986002;28;20414;-57
2021/05/04 00:15:50;;;;;;;11.80;4.35;;;;;;;;;;4984078;28;20050;-56
2021/05/04 00:18:17;;;;;;;16.77;3.67;;;;;;;;;;4984639;28;20043;-56
2021/05/04 00:20:44;;;;;;;9.95;3.45;;;;;;;;;;4983526;28;20524;-56
2021/05/04 00:23:09;;;;;;;7.32;4.10;;;;;;;;;;4986641;28;20046;-57
2021/05/04 00:25:35;;;;;;;9.45;4.00;;;;;;;;;;4987906;28;20093;-56
2021/05/04 00:28:02;;;;;;;12.20;3.78;;;;;;;;;;4987087;28;20042;-57
2021/05/04 00:30:28;;;;;;;10.27;4.10;;;;;;;;;;4985218;28;20093;-57
2021/05/04 00:32:54;;;;;;;17.08;3.97;;;;;;;;;;4983388;28;20122;-57
2021/05/04 00:35:21;;;;;;;13.35;4.03;;;;;;;;;;4986311;28;20113;-56
2021/05/04 00:37:47;;;;;;;9.63;4.28;;;;;;;;;;4984183;28;20149;-56
2021/05/04 00:40:13;;;;;;;16.67;4.75;;;;;;;;;;4987398;28;20049;-57
2021/05/04 00:42:39;;;;;;;16.27;5.15;;;;;;;;;;4985745;28;20498;-56
2021/05/04 00:45:06;;;;;;;9.43;4.03;;;;;;;;;;4983071;28;20133;-56
2021/05/04 00:47:32;;;;;;;12.18;4.22;;;;;;;;;;4980020;28;20457;-57
2021/05/04 00:49:59;;;;;;;13.13;4.68;;;;;;;;;;4988879;28;20049;-57
2021/05/04 00:52:25;;;;;;;14.38;4.75;;;;;;;;;;4986398;28;20421;-58
2021/05/04 00:54:52;;;;;;;11.00;5.20;;;;;;;;;;4985366;28;20057;-56
2021/05/04 00:57:19;;;;;;;9.65;5.00;;;;;;;;;;4984239;28;20050;-58
2021/05/04 00:59:46;;;;;;;10.90;4.80;;;;;;;;;;4984639;28;20132;-56
2021/05/04 01:02:12;;;;;;;12.65;5.22;;;;;;;;;;4988376;28;20039;-57
2021/05/04 01:04:39;;;;;;;17.92;5.45;;;;;;;;;;4980788;28;20482;-56
2021/05/04 01:07:05;;;;;;;15.50;5.27;;;;;;;;;;4983266;28;20050;-58
2021/05/04 01:09:32;;;;;;;18.10;5.05;;;;;;;;;;4999141;28;20053;-58
2021/05/04 01:11:58;;;;;;;10.45;5.07;;;;;;;;;;5004929;28;20129;-57
2021/05/04 01:14:24;;;;;;;7.70;4.10;;;;;;;;;;5007417;28;20041;-56
2021/05/04 01:16:54;;;;;;;15.27;4.60;;;;;;;;;;5004844;28;20042;-58
2021/05/04 01:19:21;;;;;;;14.35;5.18;;;;;;;;;;5005548;28;20093;-58
2021/05/04 01:21:47;;;;;;;10.40;3.55;;;;;;;;;;5004603;28;20378;-58
2021/05/04 01:24:15;;;;;;;15.02;5.10;;;;;;;;;;5001395;28;20042;-56
2021/05/04 01:26:42;;;;;;;18.88;5.20;;;;;;;;;;5003062;28;20046;-57
2021/05/04 01:29:08;;;;;;;18.77;5.57;;;;;;;;;;5004010;28;20150;-58
2021/05/04 01:31:34;;;;;;;20.55;6.50;;;;;;;;;;5000323;28;20539;-57
2021/05/04 01:34:01;;;;;;;11.02;5.32;;;;;;;;;;5007473;28;20045;-58
2021/05/04 01:36:27;;;;;;;14.93;5.20;;;;;;;;;;5009980;28;20061;-57
2021/05/04 01:38:53;;;;;;;15.68;4.97;;;;;;;;;;5008328;28;20069;-57
2021/05/04 01:41:20;;;;;;;9.93;5.13;;;;;;;;;;5009796;28;20133;-57
2021/05/04 01:43:46;;;;;;;12.40;4.70;;;;;;;;;;5009221;28;20038;-58
2021/05/04 01:46:12;;;;;;;9.43;4.40;;;;;;;;;;5009236;28;20046;-57
2021/05/04 01:48:39;;;;;;;9.10;4.80;;;;;;;;;;5007358;28;20149;-57
2021/05/04 01:51:05;;;;;;;9.30;5.15;;;;;;;;;;5011917;28;20042;-57
2021/05/04 01:53:32;;;;;;;11.43;4.13;;;;;;;;;;5004713;28;20128;-58
2021/05/04 01:55:59;;;;;;;8.75;4.22;;;;;;;;;;5007106;28;20060;-58
2021/05/04 01:58:25;;;;;;;11.60;4.97;;;;;;;;;;5004101;28;20104;-58
2021/05/04 02:00:52;;;;;;;9.88;3.78;;;;;;;;;;5007953;28;20510;-57
2021/05/04 02:03:20;;;;;;;10.57;4.10;;;;;;;;;;5006166;28;20042;-57
2021/05/04 02:05:47;;;;;;;9.38;3.90;;;;;;;;;;5007260;28;20530;-58
2021/05/04 02:08:13;;;;;;;6.65;3.40;;;;;;;;;;5003744;28;20493;-57
2021/05/04 02:10:40;;;;;;;8.80;4.03;;;;;;;;;;5009648;28;20042;-57
2021/05/04 02:13:06;;;;;;;10.60;3.35;;;;;;;;;;5008281;28;20050;-56
2021/05/04 02:15:32;;;;;;;10.25;4.25;;;;;;;;;;5007538;28;20517;-57
2021/05/04 02:17:59;;;;;;;8.10;3.70;;;;;;;;;;5005074;28;20121;-58
2021/05/04 02:20:25;;;;;;;6.10;4.30;;;;;;;;;;5004328;28;20077;-57
2021/05/04 02:22:51;;;;;;;11.80;3.78;;;;;;;;;;5009157;28;20049;-55
2021/05/04 02:25:18;;;;;;;8.38;3.83;;;;;;;;;;5009030;28;20038;-58
2021/05/04 02:27:44;;;;;;;6.45;3.13;;;;;;;;;;5009614;28;20117;-56
2021/05/04 02:30:10;;;;;;;10.35;3.60;;;;;;;;;;5006113;28;20050;-55
2021/05/04 02:32:37;;;;;;;8.93;3.28;;;;;;;;;;5006476;28;20041;-57
2021/05/04 02:35:03;;;;;;;9.10;3.40;;;;;;;;;;5003573;28;20112;-57
2021/05/04 02:37:29;;;;;;;5.22;3.47;;;;;;;;;;5008278;28;20049;-58
2021/05/04 02:39:55;;;;;;;6.28;3.38;;;;;;;;;;5005679;28;20038;-58
2021/05/04 02:42:21;;;;;;;7.15;3.40;;;;;;;;;;5009827;28;20080;-57
2021/05/04 02:44:47;;;;;;;7.63;3.50;;;;;;;;;;5009397;28;20496;-58
2021/05/04 02:47:14;;;;;;;7.93;3.28;;;;;;;;;;5007833;28;20042;-57
2021/05/04 02:49:41;;;;;;;9.55;3.15;;;;;;;;;;5006466;28;20030;-57
2021/05/04 02:52:07;;;;;;;4.72;2.95;;;;;;;;;;5002971;28;20045;-55
2021/05/04 02:54:34;;;;;;;6.20;2.45;;;;;;;;;;5008752;28;20034;-58
2021/05/04 02:57:01;;;;;;;5.95;2.40;;;;;;;;;;5007183;28;20050;-58
2021/05/04 02:59:27;;;;;;;5.07;2.97;;;;;;;;;;4975269;28;20371;-56
2021/05/04 03:01:53;;;;;;;8.52;3.13;;;;;;;;;;5006516;28;20458;-57
2021/05/04 03:04:19;;;;;;;7.60;3.25;;;;;;;;;;5005521;28;20121;-58
2021/05/04 03:06:45;;;;;;;8.73;3.00;;;;;;;;;;5009588;28;20076;-57
2021/05/04 03:09:12;;;;;;;3.00;2.40;;;;;;;;;;5009269;28;20113;-57
2021/05/04 03:11:38;;;;;;;4.75;3.05;;;;;;;;;;5004805;28;20037;-58
2021/05/04 03:14:04;;;;;;;5.82;2.97;;;;;;;;;;4992181;28;20564;-58
2021/05/04 03:16:31;;;;;;;10.02;4.18;;;;;;;;;;5006664;28;20429;-58
2021/05/04 03:18:57;;;;;;;4.00;3.00;;;;;;;;;;5009131;28;20045;-56
2021/05/04 03:21:24;;;;;;;6.80;3.00;;;;;;;;;;4991082;28;20645;-57
2021/05/04 03:23:52;;;;;;;4.72;2.80;;;;;;;;;;5007645;28;20124;-58
2021/05/04 03:26:21;;;;;;;7.35;3.03;;;;;;;;;;5006426;28;20549;-57
2021/05/04 03:28:47;;;;;;;7.32;3.65;;;;;;;;;;5005154;28;20507;-56
2021/05/04 03:31:13;;;;;;;7.57;3.10;;;;;;;;;;5006497;28;20412;-56
2021/05/04 03:33:39;;;;;;;6.03;3.17;;;;;;;;;;5003013;28;20494;-58
2021/05/04 03:36:05;;;;;;;5.70;3.03;;;;;;;;;;5007911;28;20153;-57
2021/05/04 03:38:32;;;;;;;6.15;3.10;;;;;;;;;;5007516;28;20042;-55
2021/05/04 03:40:58;;;;;;;8.30;3.40;;;;;;;;;;5004372;28;20088;-58
2021/05/04 03:43:24;;;;;;;6.10;3.20;;;;;;;;;;5003902;28;20049;-57
2021/05/04 03:45:50;;;;;;;8.48;3.53;;;;;;;;;;5005506;28;20151;-55
2021/05/04 03:48:16;;;;;;;5.95;3.60;;;;;;;;;;5005486;28;20050;-55
2021/05/04 03:50:42;;;;;;;5.78;3.58;;;;;;;;;;5001876;28;20034;-57
2021/05/04 03:53:09;;;;;;;7.45;3.40;;;;;;;;;;5005973;28;20580;-54
2021/05/04 03:55:35;;;;;;;4.43;3.03;;;;;;;;;;5006703;28;20136;-54
2021/05/04 03:58:01;;;;;;;5.75;2.95;;;;;;;;;;4990632;28;20100;-57
2021/05/04 04:00:27;;;;;;;4.47;2.65;;;;;;;;;;4990691;28;20386;-57
2021/05/04 04:02:53;;;;;;;6.97;3.60;;;;;;;;;;5008374;28;20069;-56
2021/05/04 04:05:19;;;;;;;8.10;3.33;;;;;;;;;;5007187;28;20050;-56
2021/05/04 04:07:46;;;;;;;6.88;3.20;;;;;;;;;;5007288;28;20075;-56
2021/05/04 04:10:12;;;;;;;4.20;2.67;;;;;;;;;;5010042;28;20042;-56
2021/05/04 04:12:41;;;;;;;13.18;3.45;;;;;;;;;;4989991;28;20037;-57
2021/05/04 04:15:08;;;;;;;4.68;2.72;;;;;;;;;;5006977;28;20046;-55
2021/05/04 04:17:35;;;;;;;6.20;3.50;;;;;;;;;;5004566;28;20034;-55
2021/05/04 04:20:01;;;;;;;5.18;2.63;;;;;;;;;;5002899;28;20498;-55
2021/05/04 04:22:28;;;;;;;4.53;2.17;;;;;;;;;;5001230;28;20039;-59
2021/05/04 04:24:54;;;;;;;4.43;3.20;;;;;;;;;;5002899;28;20042;-56
2021/05/04 04:27:21;;;;;;;4.97;2.92;;;;;;;;;;5003582;28;20056;-56
2021/05/04 04:29:49;;;;;;;5.50;2.47;;;;;;;;;;5002692;28;20084;-58
2021/05/04 04:32:15;;;;;;;10.40;3.37;;;;;;;;;;5002457;28;20117;-55
2021/05/04 04:34:41;;;;;;;9.75;3.15;;;;;;;;;;5002032;28;20514;-57
2021/05/04 04:37:08;;;;;;;4.28;3.30;;;;;;;;;;4990544;28;20513;-55
2021/05/04 04:39:36;;;;;;;8.52;3.38;;;;;;;;;;4999413;28;20401;-54
2021/05/04 04:42:03;;;;;;;10.07;3.70;;;;;;;;;;5006500;28;20060;-56
2021/05/04 04:44:29;;;;;;;4.97;3.17;;;;;;;;;;5008959;28;20501;-58
2021/05/04 04:46:56;;;;;;;7.22;2.78;;;;;;;;;;5002319;28;20568;-56
2021/05/04 04:49:22;;;;;;;9.43;2.63;;;;;;;;;;5006333;28;20057;-56
2021/05/04 04:51:48;;;;;;;4.88;3.25;;;;;;;;;;4999724;28;20030;-57
2021/05/04 04:54:14;;;;;;;7.28;3.55;;;;;;;;;;5002965;28;20042;-57
2021/05/04 04:56:41;;;;;;;5.75;3.33;;;;;;;;;;5004611;28;20060;-55
2021/05/04 04:59:07;;;;;;;4.15;3.22;;;;;;;;;;5004551;28;20067;-57
2021/05/04 05:01:34;;;;;;;8.82;3.45;;;;;;;;;;5004984;28;20041;-55
2021/05/04 05:04:01;;;;;;;5.03;3.20;;;;;;;;;;5003134;28;20041;-56
2021/05/04 05:06:28;;;;;;;5.00;2.88;;;;;;;;;;5002048;28;20034;-57
2021/05/04 05:08:54;;;;;;;7.85;3.17;;;;;;;;;;5002006;28;20046;-55
2021/05/04 05:11:20;;;;;;;6.13;3.15;;;;;;;;;;5002602;28;20460;-56
2021/05/04 05:13:47;;;;;;;8.68;3.30;;;;;;;;;;5004066;28;20061;-55
2021/05/04 05:16:17;;;;;;;5.93;2.90;;;;;;;;;;5009718;28;20038;-56
2021/05/04 05:18:43;;;;;;;3.88;2.50;;;;;;;;;;5008540;28;20318;-56
2021/05/04 05:21:11;;;;;;;5.63;3.10;;;;;;;;;;5002649;28;20127;-57
2021/05/04 05:23:38;;;;;;;5.82;3.15;;;;;;;;;;5012713;28;20050;-57
2021/05/04 05:26:04;;;;;;;6.10;3.33;;;;;;;;;;5005854;28;20046;-56
2021/05/04 05:28:31;;;;;;;5.93;3.33;;;;;;;;;;5004725;28;20864;-56
2021/05/04 05:30:57;;;;;;;5.00;2.92;;;;;;;;;;5006902;28;20168;-57
2021/05/04 05:33:23;;;;;;;7.13;3.13;;;;;;;;;;5003818;28;20335;-57
2021/05/04 05:35:50;;;;;;;10.50;3.33;;;;;;;;;;5009074;28;20396;-55
2021/05/04 05:38:26;;;;;;;6.13;3.55;;;;;;;;;;5007388;28;20046;-57
2021/05/04 05:40:53;;;;;;;5.05;2.80;;;;;;;;;;4999731;28;20120;-57
2021/05/04 05:43:19;;;;;;;5.72;3.20;;;;;;;;;;5003395;28;20046;-56
2021/05/04 05:45:45;;;;;;;5.72;2.78;;;;;;;;;;4998907;28;20116;-58
2021/05/04 05:48:12;;;;;;;4.93;3.22;;;;;;;;;;5001653;28;20046;-58
2021/05/04 05:50:38;;;;;;;5.38;3.00;;;;;;;;;;4983653;28;20044;-57
2021/05/04 05:53:04;;;;;;;4.72;3.22;;;;;;;;;;5010369;28;20042;-59
2021/05/04 05:55:31;;;;;;;4.90;3.40;;;;;;;;;;5004301;28;20502;-57
2021/05/04 05:58:00;;;;;;;5.07;3.63;;;;;;;;;;5002883;28;20038;-57
2021/05/04 06:00:27;;;;;;;6.88;3.28;;;;;;;;;;5004935;28;20047;-57
2021/05/04 06:02:53;;;;;;;6.20;3.30;;;;;;;;;;5004500;28;20134;-56
2021/05/04 06:05:19;;;;;;;5.40;3.50;;;;;;;;;;4999502;28;20054;-58
2021/05/04 06:07:50;;;;;;;10.65;3.33;;;;;;;;;;5007648;28;20059;-56
2021/05/04 06:10:19;;;;;;;5.45;2.70;;;;;;;;;;5013294;28;20053;-57
2021/05/04 06:12:45;;;;;;;7.57;3.67;;;;;;;;;;5009763;28;20088;-56
2021/05/04 06:15:11;;;;;;;7.00;3.03;;;;;;;;;;5007559;28;20120;-55
2021/05/04 06:17:37;;;;;;;4.55;2.70;;;;;;;;;;5003180;28;20062;-56
2021/05/04 06:20:04;;;;;;;6.53;3.53;;;;;;;;;;5001163;28;20050;-57
2021/05/04 06:22:30;;;;;;;5.18;2.55;;;;;;;;;;5008292;28;20049;-58
2021/05/04 06:24:57;;;;;;;3.50;2.45;;;;;;;;;;5007535;28;20038;-57
2021/05/04 06:27:23;;;;;;;3.85;2.53;;;;;;;;;;5011660;28;20057;-55
2021/05/04 06:29:49;;;;;;;5.63;2.53;;;;;;;;;;5006352;28;20111;-58
2021/05/04 06:32:16;;;;;;;4.00;2.53;;;;;;;;;;5005276;28;20848;-57
2021/05/04 06:34:43;;;;;;;4.40;3.08;;;;;;;;;;5006224;28;20065;-58
2021/05/04 06:37:09;;;;;;;4.35;2.97;;;;;;;;;;5006025;28;20104;-54
2021/05/04 06:39:36;;;;;;;4.55;3.22;;;;;;;;;;4986376;28;20049;-56
2021/05/04 06:42:03;;;;;;;6.77;3.37;;;;;;;;;;5007902;28;20553;-54
2021/05/04 06:44:29;;;;;;;4.03;2.65;;;;;;;;;;5008831;28;20052;-54
2021/05/04 06:46:56;;;;;;;4.65;3.33;;;;;;;;;;5005230;28;20042;-53
2021/05/04 06:49:22;;;;;;;3.83;2.25;;;;;;;;;;4986914;28;20053;-57
2021/05/04 06:51:48;;;;;;;8.95;4.43;;;;;;;;;;5004343;28;20092;-57
2021/05/04 06:54:14;;;;;;;6.75;4.70;;;;;;;;;;5005953;28;20065;-56
2021/05/04 06:56:40;;;;;;;8.02;3.67;;;;;;;;;;5000812;28;20038;-56
2021/05/04 06:59:06;;;;;;;9.77;3.40;;;;;;;;;;5009336;28;20073;-57
2021/05/04 07:01:34;;;;;;;6.95;3.58;;;;;;;;;;5010595;28;20037;-56
2021/05/04 07:04:00;;;;;;;4.90;3.55;;;;;;;;;;4999999;28;20049;-54
2021/05/04 07:06:26;;;;;;;8.18;4.10;;;;;;;;;;5003294;28;20057;-55
2021/05/04 07:08:52;;;;;;;8.50;5.43;;;;;;;;;;5006235;28;20057;-55
2021/05/04 07:11:19;;;;;;;4.35;2.78;;;;;;;;;;5002909;28;20049;-55
2021/05/04 07:13:44;;;;;;;5.72;4.05;;;;;;;;;;5005659;28;20034;-55
2021/05/04 07:16:11;;;;;;;6.23;3.13;;;;;;;;;;4998611;28;20042;-55
2021/05/04 07:18:40;;;;;;;3.00;2.13;;;;;;;;;;5008555;28;20292;-52
2021/05/04 07:21:08;;;;;;;5.90;3.65;;;;;;;;;;5005829;28;20049;-53
2021/05/04 07:23:36;;;;;;;7.38;4.10;;;;;;;;;;5006832;28;20041;-52
2021/05/04 07:26:02;;;;;;;8.10;3.50;;;;;;;;;;5004389;28;20065;-55
2021/05/04 07:28:28;;;;;;;6.88;4.38;;;;;;;;;;5003943;28;20069;-56
2021/05/04 07:30:56;;;;;;;6.05;4.38;;;;;;;;;;5007685;28;20050;-51
2021/05/04 07:33:22;;;;;;;8.82;4.97;;;;;;;;;;5007886;28;20486;-50
2021/05/04 07:35:48;;;;;;;5.97;3.38;;;;;;;;;;5003338;28;20140;-52
2021/05/04 07:38:17;;;;;;;6.80;4.68;;;;;;;;;;4998424;28;20034;-52
2021/05/04 07:40:43;;;;;;;7.03;3.83;;;;;;;;;;5003612;28;20108;-52
2021/05/04 07:43:09;;;;;;;7.75;5.07;;;;;;;;;;5003488;28;20034;-53
2021/05/04 07:45:36;;;;;;;8.00;5.13;;;;;;;;;;5003616;28;20038;-53
2021/05/04 07:48:03;;;;;;;6.90;4.40;;;;;;;;;;5004909;28;20193;-51
2021/05/04 07:50:30;;;;;;;7.65;4.93;;;;;;;;;;5007337;28;20042;-51
2021/05/04 07:52:56;;;;;;;6.68;4.63;;;;;;;;;;4998506;28;20524;-49
2021/05/04 07:55:22;;;;;;;5.70;3.65;;;;;;;;;;4999957;28;20049;-51
2021/05/04 07:57:48;;;;;;;7.35;4.60;;;;;;;;;;5005400;28;20046;-53
2021/05/04 08:00:14;;;;;;;4.93;3.47;;;;;;;;;;5006221;28;20579;-55
2021/05/04 08:02:41;;;;;;;4.57;3.80;;;;;;;;;;5005315;28;20042;-50
2021/05/04 08:05:08;;;;;;;9.50;2.97;;;;;;;;;;5000278;28;20045;-53
2021/05/04 08:07:35;;;;;;;5.90;4.57;;;;;;;;;;5005588;28;20049;-50
2021/05/04 08:10:02;;;;;;;5.47;3.33;;;;;;;;;;5011992;28;20218;-52
2021/05/04 08:12:28;;;;;;;6.05;3.38;;;;;;;;;;5003710;28;20041;-50
2021/05/04 08:14:55;;;;;;;8.50;5.00;;;;;;;;;;4998169;28;20517;-50
2021/05/04 08:17:23;;;;;;;6.25;4.47;;;;;;;;;;5003047;28;20042;-52
2021/05/04 08:19:51;;;;;;;5.95;2.95;;;;;;;;;;5001385;28;20097;-54
2021/05/04 08:22:18;;;;;;;5.00;3.67;;;;;;;;;;5002676;28;20480;-49
2021/05/04 08:24:44;;;;;;;6.37;3.83;;;;;;;;;;5002864;28;20038;-49
2021/05/04 08:27:11;;;;;;;6.80;4.28;;;;;;;;;;5003972;28;20042;-54
2021/05/04 08:29:37;;;;;;;6.55;4.45;;;;;;;;;;5006233;28;20044;-54
2021/05/04 08:32:03;;;;;;;5.75;5.10;;;;;;;;;;5001849;28;20046;-49
2021/05/04 08:34:30;;;;;;;5.80;3.97;;;;;;;;;;5005440;28;20050;-53
2021/05/04 08:36:58;;;;;;;5.85;3.83;;;;;;;;;;5003869;28;20046;-53
2021/05/04 08:39:25;;;;;;;7.35;3.05;;;;;;;;;;5004820;28;20046;-52
2021/05/04 08:41:51;;;;;;;3.70;2.63;;;;;;;;;;5002009;28;20121;-53
2021/05/04 08:44:20;;;;;;;4.80;3.10;;;;;;;;;;5000622;28;20072;-52
2021/05/04 08:46:47;;;;;;;5.38;3.88;;;;;;;;;;5004623;28;20042;-48
2021/05/04 08:49:14;;;;;;;6.72;3.85;;;;;;;;;;5003700;28;20104;-51
2021/05/04 08:51:44;;;;;;;5.88;4.07;;;;;;;;;;4998754;28;20038;-50
2021/05/04 08:54:11;;;;;;;10.10;3.90;;;;;;;;;;5004623;28;20037;-52
2021/05/04 08:56:40;;;;;;;6.15;3.25;;;;;;;;;;5004775;28;20046;-50
2021/05/04 08:59:07;;;;;;;3.80;2.53;;;;;;;;;;5001765;28;20101;-51
2021/05/04 09:01:33;;;;;;;5.40;3.40;;;;;;;;;;5004184;28;20405;-51
2021/05/04 09:04:17;;;;;;;5.35;3.83;;;;;;;;;;5003528;28;20148;-54
2021/05/04 09:06:48;;;;;;;5.88;3.15;;;;;;;;;;4998786;28;20489;-54
2021/05/04 09:09:22;;;;;;;4.15;2.65;;;;;;;;;;5001428;28;20054;-53
2021/05/04 09:12:02;;;;;;;2.75;2.15;;;;;;;;;;5001690;28;20057;-54
2021/05/04 09:17:25;;;;;;;5.47;3.00;;;;;;;;;;5008703;28;20497;-52
2021/05/04 09:22:49;;;;;;;3.42;2.40;;;;;;;;;;5005760;28;20069;-50
2021/05/04 09:25:35;;;;;;;5.88;3.15;;;;;;;;;;5003385;28;20080;-56
2021/05/04 09:28:10;;;;;;;5.88;2.88;;;;;;;;;;4992547;28;20049;-50
2021/05/04 09:30:37;;;;;;;5.22;2.55;;;;;;;;;;5002080;28;20383;-51
2021/05/04 09:33:07;;;;;;;3.78;2.83;;;;;;;;;;5005451;28;20072;-53
2021/05/04 09:35:34;;;;;;;3.72;2.45;;;;;;;;;;5003353;28;20042;-49
2021/05/04 09:38:03;;;;;;;4.37;3.43;;;;;;;;;;4999255;28;20046;-52
2021/05/04 09:40:32;;;;;;;4.90;3.88;;;;;;;;;;5004314;28;20061;-49
2021/05/04 09:43:03;;;;;;;3.42;2.70;;;;;;;;;;5002562;28;20080;-53
2021/05/04 09:45:30;;;;;;;5.63;3.90;;;;;;;;;;5004057;28;20050;-52
2021/05/04 09:48:26;;;;;;;5.55;3.45;;;;;;;;;;4998689;28;20037;-52
2021/05/04 09:50:57;;;;;;;5.70;2.22;;;;;;;;;;5000843;28;20521;-50
2021/05/04 09:53:24;;;;;;;4.32;2.80;;;;;;;;;;5005533;28;20044;-51
2021/05/04 09:55:57;;;;;;;3.80;3.03;;;;;;;;;;5004589;28;20125;-52
2021/05/04 09:58:33;;;;;;;4.22;3.40;;;;;;;;;;5007551;28;20497;-48
2021/05/04 10:00:59;;;;;;;2.83;2.17;;;;;;;;;;5002448;28;20104;-49
2021/05/04 10:03:27;;;;;;;3.00;2.65;;;;;;;;;;5005455;28;20048;-52
2021/05/04 10:05:57;;;;;;;3.47;2.53;;;;;;;;;;5006801;28;20457;-49
2021/05/04 10:08:24;;;;;;;4.60;3.22;;;;;;;;;;4983532;28;20051;-53
2021/05/04 10:10:51;;;;;;;3.75;3.40;;;;;;;;;;4999926;28;20046;-53
2021/05/04 10:13:17;;;;;;;4.22;3.22;;;;;;;;;;5006227;28;20092;-55
2021/05/04 10:15:44;;;;;;;3.10;2.40;;;;;;;;;;5003932;28;20034;-49
2021/05/04 10:18:12;;;;;;;2.45;2.00;;;;;;;;;;5002177;28;20069;-49
2021/05/04 10:20:40;;;;;;;3.38;2.15;;;;;;;;;;5001649;28;20037;-48
2021/05/04 10:23:06;;;;;;;3.20;2.40;;;;;;;;;;5003568;28;20552;-49
2021/05/04 10:25:33;;;;;;;5.72;2.92;;;;;;;;;;5009434;28;20038;-56
2021/05/04 10:27:59;;;;;;;6.72;2.45;;;;;;;;;;5009801;28;20182;-50
2021/05/04 10:30:26;;;;;;;3.00;2.60;;;;;;;;;;5007689;28;20046;-53
2021/05/04 10:32:56;;;;;;;3.45;2.35;;;;;;;;;;5007928;28;20460;-49
2021/05/04 10:35:33;;;;;;;2.30;2.10;;;;;;;;;;5010050;28;20042;-53
2021/05/04 10:38:09;;;;;;;4.38;2.78;;;;;;;;;;5008121;28;20120;-54
2021/05/04 10:40:37;;;;;;;3.13;2.33;;;;;;;;;;5006625;28;20072;-52
2021/05/04 10:43:22;;;;;;;3.53;2.80;;;;;;;;;;5012414;28;20129;-50
2021/05/04 10:45:52;;;;;;;3.88;2.92;;;;;;;;;;5008237;28;20044;-51
2021/05/04 10:48:37;;;;;;;4.18;2.65;;;;;;;;;;5002545;28;20117;-51
2021/05/04 10:51:10;;;;;;;3.65;2.90;;;;;;;;;;5006457;28;20129;-52
2021/05/04 10:53:51;;;;;;;4.43;3.17;;;;;;;;;;4988671;28;20526;-50
2021/05/04 10:56:29;;;;;;;4.80;2.83;;;;;;;;;;5007341;28;20046;-49
2021/05/04 10:58:56;;;;;;;3.53;2.60;;;;;;;;;;5008606;28;20066;-49
2021/05/04 11:01:22;;;;;;;5.10;3.35;;;;;;;;;;5010077;28;20060;-50
2021/05/04 11:03:49;;;;;;;4.70;3.35;;;;;;;;;;5002346;28;20046;-50
2021/05/04 11:06:21;;;;;;;4.72;3.50;;;;;;;;;;5003079;28;20133;-55
2021/05/04 11:08:51;;;;;;;5.50;3.08;;;;;;;;;;5003478;28;20042;-55
2021/05/04 11:11:51;;;;;;;5.22;2.70;;;;;;;;;;5009276;28;20045;-55
2021/05/04 11:14:24;;;;;;;6.00;3.60;;;;;;;;;;5003830;28;20057;-52
2021/05/04 11:16:56;;;;;;;4.20;3.25;;;;;;;;;;5005029;28;20050;-55
2021/05/04 11:19:23;;;;;;;5.28;3.75;;;;;;;;;;5006815;28;20045;-54
2021/05/04 11:21:52;;;;;;;4.20;3.10;;;;;;;;;;5003805;28;20568;-55
2021/05/04 11:24:20;;;;;;;4.25;3.30;;;;;;;;;;5008702;28;20042;-55
2021/05/04 11:26:48;;;;;;;3.92;2.50;;;;;;;;;;4998151;28;20512;-56
2021/05/04 11:29:16;;;;;;;4.45;3.20;;;;;;;;;;5006422;28;20046;-55
2021/05/04 11:31:44;;;;;;;3.75;3.35;;;;;;;;;;5009530;28;20042;-56
2021/05/04 11:34:29;;;;;;;4.30;3.65;;;;;;;;;;5004670;28;20060;-56
2021/05/04 11:36:56;;;;;;;5.47;3.85;;;;;;;;;;5002185;28;20146;-53
2021/05/04 11:39:22;;;;;;;4.15;2.47;;;;;;;;;;5007582;28;20156;-56
2021/05/04 11:41:55;;;;;;;4.63;3.50;;;;;;;;;;5005065;28;20042;-55
2021/05/04 11:44:32;;;;;;;4.32;3.33;;;;;;;;;;5006517;28;20042;-54
2021/05/04 11:47:30;;;;;;;4.90;3.63;;;;;;;;;;4999202;28;20042;-54
2021/05/04 11:50:02;;;;;;;6.32;4.22;;;;;;;;;;4963092;28;20054;-56
2021/05/04 11:52:29;;;;;;;6.47;4.57;;;;;;;;;;5006136;28;20050;-54
2021/05/04 11:55:05;;;;;;;4.80;4.00;;;;;;;;;;5004435;28;20453;-53
2021/05/04 11:57:31;;;;;;;4.75;4.00;;;;;;;;;;5003345;28;20129;-55
2021/05/04 11:59:58;;;;;;;5.90;3.88;;;;;;;;;;5004883;28;20054;-54
2021/05/04 12:02:28;;;;;;;4.43;3.90;;;;;;;;;;5004751;28;20057;-55
2021/05/04 12:04:55;;;;;;;6.40;3.83;;;;;;;;;;5006276;28;20401;-54
2021/05/04 12:07:36;;;;;;;5.40;3.80;;;;;;;;;;5004466;28;20497;-53
2021/05/04 12:10:03;;;;;;;4.32;3.47;;;;;;;;;;4990973;28;20058;-56
2021/05/04 12:12:48;;;;;;;9.00;4.63;;;;;;;;;;4989344;28;20082;-56
2021/05/04 12:15:17;;;;;;;6.03;3.95;;;;;;;;;;5000340;28;20563;-52
2021/05/04 12:17:57;;;;;;;5.97;4.40;;;;;;;;;;5004277;28;20121;-52
2021/05/04 12:20:25;;;;;;;7.03;4.05;;;;;;;;;;5006534;28;20564;-51
2021/05/04 12:22:55;;;;;;;6.90;3.92;;;;;;;;;;4990893;28;20042;-51
2021/05/04 12:25:25;;;;;;;5.53;4.45;;;;;;;;;;4998221;28;20054;-52
2021/05/04 12:27:52;;;;;;;6.32;4.80;;;;;;;;;;5004699;28;20060;-53
2021/05/04 12:30:19;;;;;;;5.88;3.42;;;;;;;;;;5004254;28;20129;-49
2021/05/04 12:32:46;;;;;;;8.45;5.20;;;;;;;;;;5007978;28;20108;-51
2021/05/04 12:35:32;;;;;;;6.72;4.65;;;;;;;;;;5000460;28;20552;-52
2021/05/04 12:38:18;;;;;;;5.68;3.65;;;;;;;;;;5002771;28;20037;-54
2021/05/04 12:41:15;;;;;;;4.90;4.10;;;;;;;;;;5001972;28;20062;-53
2021/05/04 12:43:57;;;;;;;8.90;5.45;;;;;;;;;;5001764;28;20056;-50
2021/05/04 12:46:44;;;;;;;6.15;4.35;;;;;;;;;;5002987;28;20080;-50
2021/05/04 12:49:11;;;;;;;6.93;5.28;;;;;;;;;;5003292;28;20046;-49
2021/05/04 12:51:39;;;;;;;8.50;5.60;;;;;;;;;;5006340;28;20126;-50
2021/05/04 12:54:18;;;;;;;8.40;5.55;;;;;;;;;;4993098;28;20548;-53
2021/05/04 12:56:46;;;;;;;6.43;5.70;;;;;;;;;;5006267;28;20132;-48
2021/05/04 12:59:16;;;;;;;8.85;6.07;;;;;;;;;;5004709;28;20134;-54
2021/05/04 13:01:43;;;;;;;7.38;5.85;;;;;;;;;;4997305;28;20054;-49
2021/05/04 13:04:23;;;;;;;7.20;5.47;;;;;;;;;;5003576;28;20070;-48
2021/05/04 13:06:54;;;;;;;5.82;4.90;;;;;;;;;;5004550;28;20049;-50
2021/05/04 13:12:08;;;;;;;6.32;4.85;;;;;;;;;;4999898;28;20091;-52
2021/05/04 13:30:44;;;;;;;5.75;2.03;;;;;;;;;;5004285;28;20553;-52
2021/05/04 13:33:14;;;;;;;4.88;3.60;;;;;;;;;;5002828;28;20042;-49
2021/05/04 13:35:56;;;;;;;2.65;2.00;;;;;;;;;;5005406;28;20038;-52
2021/05/04 13:49:09;;;;;;;2.38;2.17;;;;;;;;;;5009154;28;20053;-48
2021/05/04 13:51:36;;;;;;;2.92;2.60;;;;;;;;;;5006092;28;20052;-51
2021/05/04 13:54:03;;;;;;;3.63;2.70;;;;;;;;;;5008284;28;20493;-50
2021/05/04 13:56:30;;;;;;;2.65;2.45;;;;;;;;;;5008826;28;20521;-55
2021/05/04 13:58:56;;;;;;;2.83;2.25;;;;;;;;;;5002220;28;20054;-49
2021/05/04 14:01:27;;;;;;;2.08;1.40;;;;;;;;;;5007190;28;20076;-52
2021/05/04 14:04:15;;;;;;;2.10;1.90;;;;;;;;;;5005044;28;20066;-51
2021/05/04 14:27:39;;;;;;;1.98;1.67;;;;;;;;;;5006786;28;20445;-52
2021/05/04 14:30:05;;;;;;;1.48;1.10;;;;;;;;;;5004973;28;20061;-52
2021/05/04 14:32:33;;;;;;;1.90;1.48;;;;;;;;;;5003981;28;20046;-51
2021/05/04 14:35:01;;;;;;;1.50;1.13;;;;;;;;;;5003957;28;20047;-53
2021/05/04 14:40:16;;;;;;;1.00;1.00;;;;;;;;;;5008291;28;20047;-51
2021/05/04 14:46:09;;;;;;;1.20;1.10;;;;;;;;;;5004710;28;20112;-52
2021/05/04 14:59:06;;;;;;;1.45;1.30;;;;;;;;;;5003061;28;20473;-52
2021/05/04 15:01:41;;;;;;;0.93;0.85;;;;;;;;;;5007507;28;20498;-50
2021/05/04 15:04:07;;;;;;;0.90;0.90;;;;;;;;;;5005434;28;20047;-49
2021/05/04 15:06:35;;;;;;;0.95;0.90;;;;;;;;;;5002977;28;20046;-57
2021/05/04 15:09:05;;;;;;;2.38;0.93;;;;;;;;;;4999573;28;20046;-51
2021/05/04 15:11:33;;;;;;;1.00;1.00;;;;;;;;;;5005470;28;20048;-50
2021/05/04 15:13:59;;;;;;;1.08;1.00;;;;;;;;;;5004591;28;20042;-54
2021/05/04 15:17:05;;;;;;;0.98;0.88;;;;;;;;;;5005766;28;20409;-52
2021/05/04 15:22:04;;;;;;;0.88;0.70;;;;;;;;;;5001436;28;20048;-51
2021/05/04 15:24:31;;;;;;;0.65;0.65;;;;;;;;;;5002300;28;20049;-51
2021/05/04 15:26:57;;;;;;;0.82;0.82;;;;;;;;;;5000232;28;20046;-50
2021/05/04 15:29:24;;;;;;;1.27;1.13;;;;;;;;;;5004696;28;20038;-51
2021/05/04 15:32:02;;;;;;;1.00;1.00;;;;;;;;;;5006709;28;20533;-51
2021/05/04 15:34:31;;;;;;;1.60;1.50;;;;;;;;;;5001298;28;20097;-54
2021/05/04 15:36:59;;;;;;;0.80;0.80;;;;;;;;;;5003642;28;20056;-50
2021/05/04 15:39:25;;;;;;;1.20;1.00;;;;;;;;;;5004193;28;20042;-54
2021/05/04 15:41:51;;;;;;;0.90;0.85;;;;;;;;;;5005821;28;20096;-49
2021/05/04 15:44:18;;;;;;;0.50;0.50;;;;;;;;;;5004166;28;20049;-54
2021/05/04 15:49:57;;;;;;;0.85;0.80;;;;;;;;;;5002744;28;20037;-55
2021/05/04 15:52:45;;;;;;;0.52;0.52;;;;;;;;;;5005652;28;20058;-50
2021/05/04 15:55:38;;;;;;;0.68;0.68;;;;;;;;;;5003568;28;20502;-53
2021/05/04 16:08:57;;;;;;;0.73;0.68;;;;;;;;;;4999024;28;20464;-53
2021/05/04 16:11:18;;;;;;;0.90;0.55;;;;;;;;;;5008182;28;20046;-50
2021/05/04 16:13:45;;;;;;;0.63;0.60;;;;;;;;;;5004526;28;20038;-52
2021/05/04 16:16:11;;;;;;;0.30;0.30;;;;;;;;;;5000639;28;20493;-52
2021/05/04 16:18:37;;;;;;;0.50;0.50;;;;;;;;;;4999351;28;20058;-51